createdAt,value
2019-01-13T09:43:55.443Z,1002.52
2019-01-13T09:44:55.402Z,1002.49
2019-01-13T09:45:55.391Z,1002.59
2019-01-13T09:46:55.393Z,1002.50
2019-01-13T09:47:55.401Z,1002.55
2019-01-13T09:48:55.364Z,1002.63
2019-01-13T09:49:55.349Z,1002.63
2019-01-13T09:50:55.346Z,1002.55
2019-01-13T09:51:55.331Z,1002.61
2019-01-13T09:52:55.346Z,1002.62
2019-01-13T09:53:55.309Z,1002.55
2019-01-13T09:54:55.318Z,1002.59
2019-01-13T09:55:55.326Z,1002.41
2019-01-13T09:56:55.277Z,1002.41
2019-01-13T09:57:55.283Z,1002.43
2019-01-13T09:58:55.285Z,1002.44
2019-01-13T09:59:55.304Z,1002.44
2019-01-13T10:00:55.238Z,1002.40
2019-01-13T10:01:55.225Z,1002.36
2019-01-13T10:02:55.242Z,1002.46
2019-01-13T10:03:55.203Z,1002.40
2019-01-13T10:04:55.189Z,1002.42
2019-01-13T10:05:55.181Z,1002.46
2019-01-13T10:06:55.176Z,1002.46
2019-01-13T10:07:55.173Z,1002.35
2019-01-13T10:09:46.070Z,1002.39
2019-01-13T10:10:46.059Z,1002.41
2019-01-13T10:11:46.045Z,1002.46
2019-01-13T10:12:46.051Z,1002.42
2019-01-13T10:13:46.025Z,1002.39
2019-01-13T10:14:46.013Z,1002.37
2019-01-13T10:15:46.004Z,1002.35
2019-01-13T10:16:46.002Z,1002.31
2019-01-13T10:17:46.005Z,1002.32
2019-01-13T10:18:45.973Z,1002.33
2019-01-13T10:19:45.975Z,1002.24
2019-01-13T10:20:45.948Z,1002.19
2019-01-13T10:21:45.938Z,1002.20
2019-01-13T10:22:45.944Z,1002.15
2019-01-13T10:23:45.975Z,1002.21
2019-01-13T10:24:45.914Z,1002.08
2019-01-13T10:25:45.895Z,1002.12
2019-01-13T10:26:45.886Z,1002.03
2019-01-13T10:27:45.889Z,1002.01
2019-01-13T10:28:45.864Z,1001.99
2019-01-13T10:29:45.851Z,1001.94
2019-01-13T10:30:45.852Z,1001.93
2019-01-13T10:31:45.837Z,1001.87
2019-01-13T10:32:46.794Z,1001.86
2019-01-13T10:33:45.813Z,1001.88
2019-01-13T10:34:45.797Z,1001.93
2019-01-13T10:35:45.787Z,1001.99
2019-01-13T10:36:45.783Z,1002.02
2019-01-13T10:37:45.785Z,1002.04
2019-01-13T10:38:45.776Z,1001.96
2019-01-13T10:39:45.745Z,1002.02
2019-01-13T10:40:45.747Z,1002.00
2019-01-13T10:41:45.727Z,1002.01
2019-01-13T10:42:45.716Z,1002.00
2019-01-13T10:43:45.726Z,1002.01
2019-01-13T10:44:45.857Z,1002.03
2019-01-13T10:45:45.740Z,1002.02
2019-01-13T10:46:45.678Z,1001.95
2019-01-13T10:47:45.668Z,1001.98
2019-01-13T10:48:45.677Z,1001.89
2019-01-13T10:49:45.691Z,1001.88
2019-01-13T10:50:45.629Z,1001.81
2019-01-13T10:51:45.636Z,1001.80
2019-01-13T10:52:45.605Z,1001.75
2019-01-13T10:53:45.663Z,1001.66
2019-01-13T10:54:45.604Z,1001.73
2019-01-13T10:55:45.590Z,1001.68
2019-01-13T10:56:45.586Z,1001.69
2019-01-13T10:57:45.588Z,1001.74
2019-01-13T10:58:45.575Z,1001.71
2019-01-13T10:59:45.532Z,1001.66
2019-01-13T11:00:45.526Z,1001.60
2019-01-13T11:01:45.513Z,1001.64
2019-01-13T11:02:45.515Z,1001.45
2019-01-13T11:03:45.503Z,1001.56
2019-01-13T11:04:45.478Z,1001.47
2019-01-13T11:05:45.486Z,1001.41
2019-01-13T11:06:45.461Z,1001.35
2019-01-13T11:07:45.453Z,1001.32
2019-01-13T11:08:45.452Z,1001.35
2019-01-13T11:09:45.422Z,1001.30
2019-01-13T11:10:45.423Z,1001.24
2019-01-13T11:11:45.410Z,1001.36
2019-01-13T11:12:45.408Z,1001.18
2019-01-13T11:13:45.458Z,1001.20
2019-01-13T11:14:45.400Z,1001.24
2019-01-13T11:15:45.358Z,1001.22
2019-01-13T11:16:45.361Z,1001.13
2019-01-13T11:17:45.338Z,1001.20
2019-01-13T11:18:45.347Z,1001.19
2019-01-13T11:19:45.314Z,1001.15
2019-01-13T11:20:45.304Z,1001.16
2019-01-13T11:21:45.349Z,1001.08
2019-01-13T11:22:45.286Z,1001.12
2019-01-13T11:23:45.292Z,1001.04
2019-01-13T11:24:45.357Z,1001.03
2019-01-13T11:25:45.258Z,1001.12
2019-01-13T11:26:45.245Z,1001.11
2019-01-13T11:27:45.229Z,1001.00
2019-01-13T11:28:45.245Z,1001.05
2019-01-13T11:29:45.223Z,1000.98
2019-01-13T11:30:45.204Z,1000.98
2019-01-13T11:31:45.189Z,1001.02
2019-01-13T11:32:45.179Z,1001.10
2019-01-13T11:33:45.179Z,1001.06
2019-01-13T11:34:45.169Z,1001.05
2019-01-13T11:35:45.146Z,1001.05
2019-01-13T11:36:45.137Z,1001.06
2019-01-13T11:37:45.123Z,1000.98
2019-01-13T11:38:45.111Z,1001.04
2019-01-13T11:39:45.127Z,1001.00
2019-01-13T11:40:45.091Z,1001.01
2019-01-13T11:41:45.092Z,1001.01
2019-01-13T11:42:45.075Z,1000.91
2019-01-13T11:43:45.060Z,1000.95
2019-01-13T11:44:45.066Z,1000.86
2019-01-13T11:45:45.036Z,1000.87
2019-01-13T11:46:45.026Z,1000.67
2019-01-13T11:47:45.044Z,1000.73
2019-01-13T11:48:45.010Z,1000.72
2019-01-13T11:49:45.007Z,1000.71
2019-01-13T11:50:45.024Z,1000.64
2019-01-13T11:51:44.970Z,1000.53
2019-01-13T11:52:44.958Z,1000.49
2019-01-13T11:53:44.948Z,1000.53
2019-01-13T11:54:44.952Z,1000.53
2019-01-13T11:55:44.946Z,1000.52
2019-01-13T11:56:44.918Z,1000.38
2019-01-13T11:57:44.903Z,1000.59
2019-01-13T11:58:44.898Z,1000.55
2019-01-13T11:59:44.919Z,1000.56
2019-01-13T12:00:44.877Z,1000.57
2019-01-13T12:01:44.865Z,1000.60
2019-01-13T12:02:44.859Z,1000.59
2019-01-13T12:03:44.849Z,1000.50
2019-01-13T12:04:44.852Z,1000.55
2019-01-13T12:05:44.824Z,1000.55
2019-01-13T12:06:44.807Z,1000.60
2019-01-13T12:07:44.808Z,1000.63
2019-01-13T12:08:44.820Z,1000.55
2019-01-13T12:09:44.802Z,1000.50
2019-01-13T12:10:44.769Z,1000.40
2019-01-13T12:11:44.751Z,1000.39
2019-01-13T12:12:44.750Z,1000.44
2019-01-13T12:13:44.734Z,1000.33
2019-01-13T12:14:44.750Z,1000.44
2019-01-13T12:15:44.720Z,1000.40
2019-01-13T12:16:44.700Z,1000.36
2019-01-13T12:17:44.686Z,1000.26
2019-01-13T12:18:44.678Z,1000.21
2019-01-13T12:19:44.683Z,1000.26
2019-01-13T12:20:44.654Z,1000.27
2019-01-13T12:21:44.645Z,1000.22
2019-01-13T12:22:44.633Z,1000.14
2019-01-13T12:23:44.625Z,1000.07
2019-01-13T12:24:44.672Z,1000.11
2019-01-13T12:25:44.606Z,1000.17
2019-01-13T12:26:44.595Z,1000.12
2019-01-13T12:27:44.579Z,1000.11
2019-01-13T12:28:44.587Z,1000.15
2019-01-13T12:29:44.561Z,1000.20
2019-01-13T12:30:44.572Z,1000.11
2019-01-13T12:31:44.540Z,1000.11
2019-01-13T12:32:44.528Z,1000.10
2019-01-13T12:33:44.524Z,1000.00
2019-01-13T12:34:44.502Z,1000.00
2019-01-13T12:35:44.515Z,1000.05
2019-01-13T12:36:44.482Z,1000.03
2019-01-13T12:37:44.474Z,1000.07
2019-01-13T12:38:44.458Z,1000.01
2019-01-13T12:39:46.113Z,1000.04
2019-01-13T12:40:44.460Z,1000.09
2019-01-13T12:41:44.425Z,1000.07
2019-01-13T12:42:44.418Z,999.98
2019-01-13T12:43:44.410Z,999.97
2019-01-13T12:44:44.395Z,999.95
2019-01-13T12:45:44.406Z,999.91
2019-01-13T12:46:44.376Z,999.93
2019-01-13T12:47:44.359Z,999.81
2019-01-13T12:48:44.352Z,999.79
2019-01-13T12:49:44.344Z,999.81
2019-01-13T12:50:44.354Z,999.80
2019-01-13T12:51:44.357Z,999.78
2019-01-13T12:52:44.306Z,999.80
2019-01-13T12:53:44.296Z,999.79
2019-01-13T12:54:44.295Z,999.82
2019-01-13T12:55:44.303Z,999.77
2019-01-13T12:56:44.261Z,999.79
2019-01-13T12:57:44.861Z,999.74
2019-01-13T12:58:44.248Z,999.75
2019-01-13T12:59:44.237Z,999.77
2019-01-13T13:00:44.251Z,999.71
2019-01-13T13:01:44.215Z,999.69
2019-01-13T13:02:44.198Z,999.63
2019-01-13T13:03:44.197Z,999.64
2019-01-13T13:04:44.179Z,999.69
2019-01-13T13:05:44.185Z,999.68
2019-01-13T13:06:44.154Z,999.66
2019-01-13T13:07:44.156Z,999.63
2019-01-13T13:08:44.136Z,999.61
2019-01-13T13:09:44.124Z,999.54
2019-01-13T13:10:44.139Z,999.53
2019-01-13T13:11:44.097Z,999.63
2019-01-13T13:12:44.087Z,999.58
2019-01-13T13:13:44.092Z,999.55
2019-01-13T13:14:44.073Z,999.46
2019-01-13T13:15:44.060Z,999.48
2019-01-13T13:16:44.061Z,999.33
2019-01-13T13:17:44.038Z,999.33
2019-01-13T13:18:44.024Z,999.32
2019-01-13T13:19:44.022Z,999.30
2019-01-13T13:20:44.010Z,999.33
2019-01-13T13:21:44.008Z,999.36
2019-01-13T13:22:43.979Z,999.41
2019-01-13T13:23:43.970Z,999.36
2019-01-13T13:24:43.959Z,999.46
2019-01-13T13:25:43.951Z,999.44
2019-01-13T13:26:43.953Z,999.50
2019-01-13T13:27:43.925Z,999.48
2019-01-13T13:28:43.919Z,999.42
2019-01-13T13:29:43.904Z,999.34
2019-01-13T13:30:43.892Z,999.41
2019-01-13T13:31:43.898Z,999.44
2019-01-13T13:32:43.873Z,999.44
2019-01-13T13:33:43.861Z,999.24
2019-01-13T13:34:43.853Z,999.25
2019-01-13T13:35:43.848Z,999.17
2019-01-13T13:36:43.846Z,999.13
2019-01-13T13:37:43.815Z,999.12
2019-01-13T13:38:43.802Z,999.04
2019-01-13T13:39:43.793Z,999.10
2019-01-13T13:40:43.781Z,999.03
2019-01-13T13:41:43.792Z,999.06
2019-01-13T13:42:43.763Z,999.16
2019-01-13T13:43:43.747Z,999.11
2019-01-13T13:44:43.736Z,999.13
2019-01-13T13:45:43.732Z,999.15
2019-01-13T13:46:43.739Z,999.22
2019-01-13T13:47:43.717Z,999.23
2019-01-13T13:48:43.703Z,999.21
2019-01-13T13:49:43.680Z,999.30
2019-01-13T13:50:43.687Z,999.15
2019-01-13T13:51:43.680Z,999.15
2019-01-13T13:52:43.648Z,999.17
2019-01-13T13:53:43.638Z,999.13
2019-01-13T13:54:43.653Z,999.15
2019-01-13T13:55:43.642Z,999.08
2019-01-13T13:56:43.619Z,999.13
2019-01-13T13:57:43.616Z,999.09
2019-01-13T13:58:43.582Z,999.10
2019-01-13T13:59:43.574Z,999.07
2019-01-13T14:00:43.581Z,999.06
2019-01-13T14:01:43.679Z,999.11
2019-01-13T14:02:43.539Z,999.14
2019-01-13T14:03:45.969Z,999.07
2019-01-13T14:04:43.518Z,998.99
2019-01-13T14:05:43.510Z,999.04
2019-01-13T14:06:43.513Z,998.94
2019-01-13T14:07:43.514Z,998.97
2019-01-13T14:08:43.476Z,998.92
2019-01-13T14:09:43.464Z,998.88
2019-01-13T14:10:43.460Z,998.76
2019-01-13T14:11:43.454Z,998.75
2019-01-13T14:12:43.453Z,998.73
2019-01-13T14:13:43.428Z,998.74
2019-01-13T14:14:43.422Z,998.72
2019-01-13T14:15:43.402Z,998.71
2019-01-13T14:16:43.409Z,998.74
2019-01-13T14:17:43.395Z,998.70
2019-01-13T14:18:43.383Z,998.78
2019-01-13T14:19:43.360Z,998.73
2019-01-13T14:20:43.349Z,998.72
2019-01-13T14:21:43.339Z,998.81
2019-01-13T14:22:43.346Z,998.82
2019-01-13T14:23:43.315Z,998.82
2019-01-13T14:24:43.308Z,998.79
2019-01-13T14:25:43.295Z,998.85
2019-01-13T14:26:43.327Z,998.83
2019-01-13T14:27:43.283Z,998.83
2019-01-13T14:28:43.258Z,998.75
2019-01-13T14:29:43.281Z,998.75
2019-01-13T14:30:43.253Z,998.72
2019-01-13T14:31:43.225Z,998.77
2019-01-13T14:32:43.230Z,998.70
2019-01-13T14:33:43.217Z,998.64
2019-01-13T14:34:43.197Z,998.65
2019-01-13T14:35:43.190Z,998.66
2019-01-13T14:36:43.190Z,998.76
2019-01-13T14:37:43.177Z,998.69
2019-01-13T14:38:43.164Z,998.66
2019-01-13T14:39:48.716Z,998.65
2019-01-13T14:40:44.131Z,998.64
2019-01-13T14:41:43.121Z,998.63
2019-01-13T14:42:43.120Z,998.71
2019-01-13T14:43:43.099Z,998.79
2019-01-13T14:44:43.161Z,998.70
2019-01-13T14:45:43.073Z,998.68
2019-01-13T14:46:43.065Z,998.71
2019-01-13T14:47:43.081Z,998.68
2019-01-13T14:48:43.050Z,998.69
2019-01-13T14:49:43.035Z,998.52
2019-01-13T14:50:43.019Z,998.62
2019-01-13T14:51:43.009Z,998.64
2019-01-13T14:52:43.023Z,998.66
2019-01-13T14:53:43.004Z,998.67
2019-01-13T14:54:42.995Z,998.64
2019-01-13T14:55:42.962Z,998.69
2019-01-13T14:56:42.963Z,998.66
2019-01-13T14:57:42.957Z,998.67
2019-01-13T14:58:42.933Z,998.59
2019-01-13T14:59:42.922Z,998.50
2019-01-13T15:00:42.926Z,998.54
2019-01-13T15:01:42.899Z,998.60
2019-01-13T15:02:42.946Z,998.56
2019-01-13T15:03:42.876Z,998.55
2019-01-13T15:04:42.878Z,998.56
2019-01-13T15:05:42.867Z,998.50
2019-01-13T15:06:42.852Z,998.47
2019-01-13T15:07:42.833Z,998.42
2019-01-13T15:08:42.878Z,998.49
2019-01-13T15:09:42.825Z,998.45
2019-01-13T15:10:42.805Z,998.45
2019-01-13T15:11:42.798Z,998.40
2019-01-13T15:12:42.779Z,998.39
2019-01-13T15:13:42.787Z,998.39
2019-01-13T15:14:42.790Z,998.39
2019-01-13T15:15:42.752Z,998.38
2019-01-13T15:16:42.757Z,998.43
2019-01-13T15:17:42.739Z,998.39
2019-01-13T15:18:42.747Z,998.40
2019-01-13T15:19:42.749Z,998.32
2019-01-13T15:20:42.716Z,998.34
2019-01-13T15:21:42.686Z,998.37
2019-01-13T15:22:42.674Z,998.45
2019-01-13T15:23:42.682Z,998.35
2019-01-13T15:24:42.647Z,998.40
2019-01-13T15:25:42.635Z,998.39
2019-01-13T15:26:42.644Z,998.39
2019-01-13T15:27:42.627Z,998.36
2019-01-13T15:28:42.671Z,998.31
2019-01-13T15:29:42.604Z,998.35
2019-01-13T15:30:42.609Z,998.27
2019-01-13T15:31:42.579Z,998.25
2019-01-13T15:32:42.562Z,998.15
2019-01-13T15:33:42.567Z,998.28
2019-01-13T15:34:42.546Z,998.30
2019-01-13T15:35:42.547Z,998.34
2019-01-13T15:36:42.519Z,998.26
2019-01-13T15:37:42.509Z,998.32
2019-01-13T15:38:42.524Z,998.34
2019-01-13T15:39:42.489Z,998.30
2019-01-13T15:40:42.475Z,998.30
2019-01-13T15:41:42.490Z,998.30
2019-01-13T15:42:42.450Z,998.35
2019-01-13T15:43:42.456Z,998.33
2019-01-13T15:44:42.427Z,998.28
2019-01-13T15:45:42.418Z,998.45
2019-01-13T15:46:42.407Z,998.31
2019-01-13T15:47:42.400Z,998.48
2019-01-13T15:48:42.424Z,998.44
2019-01-13T15:49:42.380Z,998.40
2019-01-13T15:50:42.368Z,998.48
2019-01-13T15:51:42.362Z,998.49
2019-01-13T15:52:42.342Z,998.50
2019-01-13T15:53:42.357Z,998.58
2019-01-13T15:54:42.329Z,998.58
2019-01-13T15:55:42.315Z,998.70
2019-01-13T15:56:42.297Z,998.58
2019-01-13T15:57:42.285Z,998.57
2019-01-13T15:58:42.275Z,998.63
2019-01-13T15:59:42.289Z,998.57
2019-01-13T16:00:42.265Z,998.53
2019-01-13T16:01:42.240Z,998.55
2019-01-13T16:02:42.231Z,998.54
2019-01-13T16:03:42.218Z,998.60
2019-01-13T16:04:42.236Z,998.62
2019-01-13T16:05:42.198Z,998.63
2019-01-13T16:06:42.187Z,998.65
2019-01-13T16:07:42.180Z,998.72
2019-01-13T16:08:42.163Z,998.53
2019-01-13T16:09:42.181Z,998.57
2019-01-13T16:10:42.152Z,998.60
2019-01-13T16:11:42.141Z,998.59
2019-01-13T16:12:42.132Z,998.57
2019-01-13T16:13:42.109Z,998.61
2019-01-13T16:14:42.119Z,998.57
2019-01-13T16:15:42.088Z,998.47
2019-01-13T16:16:42.090Z,998.50
2019-01-13T16:17:42.067Z,998.58
2019-01-13T16:18:42.071Z,998.55
2019-01-13T16:19:42.089Z,998.57
2019-01-13T16:20:42.038Z,998.54
2019-01-13T16:21:42.034Z,998.50
2019-01-13T16:22:42.019Z,998.49
2019-01-13T16:23:42.022Z,998.53
2019-01-13T16:24:41.991Z,998.54
2019-01-13T16:25:42.016Z,998.54
2019-01-13T16:26:41.971Z,998.52
2019-01-13T16:27:41.964Z,998.51
2019-01-13T16:28:41.965Z,998.46
2019-01-13T16:29:41.961Z,998.48
2019-01-13T16:30:41.957Z,998.50
2019-01-13T16:31:41.916Z,998.45
2019-01-13T16:32:41.904Z,998.40
2019-01-13T16:33:41.895Z,998.48
2019-01-13T16:34:41.886Z,998.42
2019-01-13T16:35:41.919Z,998.46
2019-01-13T16:36:41.865Z,998.42
2019-01-13T16:37:41.850Z,998.43
2019-01-13T16:38:41.841Z,998.42
2019-01-13T16:39:41.827Z,998.36
2019-01-13T16:40:41.839Z,998.39
2019-01-13T16:41:41.823Z,998.40
2019-01-13T16:42:41.800Z,998.42
2019-01-13T16:43:41.802Z,998.41
2019-01-13T16:44:41.775Z,998.34
2019-01-13T16:45:41.782Z,998.36
2019-01-13T16:46:43.558Z,998.41
2019-01-13T16:47:41.761Z,998.38
2019-01-13T16:48:41.734Z,998.39
2019-01-13T16:49:41.727Z,998.35
2019-01-13T16:50:41.756Z,998.30
2019-01-13T16:51:41.700Z,998.27
2019-01-13T16:52:41.690Z,998.26
2019-01-13T16:53:41.702Z,998.26
2019-01-13T16:54:41.670Z,998.23
2019-01-13T16:55:41.661Z,998.15
2019-01-13T16:56:41.667Z,998.18
2019-01-13T16:57:41.642Z,998.21
2019-01-13T16:58:41.634Z,998.20
2019-01-13T16:59:41.629Z,998.22
2019-01-13T17:00:41.625Z,998.25
2019-01-13T17:01:41.623Z,998.22
2019-01-13T17:02:41.585Z,998.19
2019-01-13T17:03:41.578Z,998.18
2019-01-13T17:04:41.565Z,998.19
2019-01-13T17:05:41.554Z,998.18
2019-01-13T17:06:41.572Z,998.13
2019-01-13T17:07:41.532Z,998.09
2019-01-13T17:08:41.539Z,998.10
2019-01-13T17:09:41.512Z,998.13
2019-01-13T17:10:41.507Z,998.15
2019-01-13T17:11:41.512Z,998.14
2019-01-13T17:12:41.475Z,998.09
2019-01-13T17:13:41.464Z,998.11
2019-01-13T17:14:41.464Z,998.03
2019-01-13T17:15:41.457Z,997.95
2019-01-13T17:16:41.482Z,998.02
2019-01-13T17:17:41.436Z,998.06
2019-01-13T17:18:41.414Z,997.93
2019-01-13T17:19:41.405Z,997.93
2019-01-13T17:20:41.389Z,998.01
2019-01-13T17:21:41.382Z,997.98
2019-01-13T17:22:41.384Z,998.04
2019-01-13T17:23:41.394Z,997.90
2019-01-13T17:24:41.352Z,997.97
2019-01-13T17:25:41.335Z,997.97
2019-01-13T17:26:41.323Z,998.01
2019-01-13T17:27:41.333Z,997.97
2019-01-13T17:28:41.312Z,997.96
2019-01-13T17:29:41.288Z,997.87
2019-01-13T17:30:41.285Z,997.91
2019-01-13T17:31:41.269Z,997.83
2019-01-13T17:32:41.271Z,997.78
2019-01-13T17:33:41.253Z,997.77
2019-01-13T17:34:41.244Z,997.78
2019-01-13T17:35:41.229Z,997.79
2019-01-13T17:36:41.210Z,997.78
2019-01-13T17:37:41.218Z,997.77
2019-01-13T17:38:41.195Z,997.79
2019-01-13T17:39:41.179Z,997.74
2019-01-13T17:40:41.168Z,997.63
2019-01-13T17:41:41.159Z,997.70
2019-01-13T17:42:41.181Z,997.62
2019-01-13T17:43:41.138Z,997.64
2019-01-13T17:44:41.130Z,997.67
2019-01-13T17:45:41.119Z,997.65
2019-01-13T17:46:41.240Z,997.56
2019-01-13T17:47:41.111Z,997.61
2019-01-13T17:48:41.085Z,997.53
2019-01-13T17:49:41.073Z,997.65
2019-01-13T17:50:41.062Z,997.66
2019-01-13T17:51:41.056Z,997.69
2019-01-13T17:52:41.072Z,997.58
2019-01-13T17:53:41.029Z,997.53
2019-01-13T17:54:41.020Z,997.57
2019-01-13T17:55:41.016Z,997.68
2019-01-13T17:56:40.997Z,997.65
2019-01-13T17:57:41.054Z,997.60
2019-01-13T17:58:40.983Z,997.62
2019-01-13T17:59:40.982Z,997.58
2019-01-13T18:00:40.958Z,997.55
2019-01-13T18:01:40.943Z,997.59
2019-01-13T18:02:40.933Z,997.61
2019-01-13T18:03:40.940Z,997.66
2019-01-13T18:04:43.298Z,997.74
2019-01-13T18:05:40.898Z,997.80
2019-01-13T18:06:40.900Z,997.80
2019-01-13T18:07:42.498Z,997.68
2019-01-13T18:08:40.907Z,997.60
2019-01-13T18:09:40.857Z,997.61
2019-01-13T18:10:40.862Z,997.60
2019-01-13T18:11:40.838Z,997.59
2019-01-13T18:12:40.823Z,997.72
2019-01-13T18:13:40.851Z,997.66
2019-01-13T18:14:40.821Z,997.71
2019-01-13T18:15:40.796Z,997.72
2019-01-13T18:16:40.808Z,997.72
2019-01-13T18:17:40.772Z,997.69
2019-01-13T18:18:40.777Z,997.75
2019-01-13T18:19:40.748Z,997.59
2019-01-13T18:20:40.751Z,997.62
2019-01-13T18:21:40.728Z,997.58
2019-01-13T18:22:40.763Z,997.55
2019-01-13T18:23:40.750Z,997.56
2019-01-13T18:24:40.706Z,997.52
2019-01-13T18:25:40.683Z,997.47
2019-01-13T18:26:40.675Z,997.51
2019-01-13T18:27:40.667Z,997.52
2019-01-13T18:28:40.662Z,997.47
2019-01-13T18:29:40.672Z,997.47
2019-01-13T18:30:40.630Z,997.44
2019-01-13T18:31:40.644Z,997.49
2019-01-13T18:32:40.609Z,997.49
2019-01-13T18:33:40.609Z,997.41
2019-01-13T18:34:40.606Z,997.47
2019-01-13T18:35:40.577Z,997.44
2019-01-13T18:36:40.568Z,997.36
2019-01-13T18:37:40.564Z,997.39
2019-01-13T18:38:40.569Z,997.40
2019-01-13T18:39:40.560Z,997.41
2019-01-13T18:40:40.530Z,997.40
2019-01-13T18:41:40.514Z,997.47
2019-01-13T18:42:40.554Z,997.49
2019-01-13T18:43:40.499Z,997.51
2019-01-13T18:44:40.500Z,997.40
2019-01-13T18:45:40.475Z,997.46
2019-01-13T18:46:40.464Z,997.50
2019-01-13T18:47:40.454Z,997.45
2019-01-13T18:48:40.455Z,997.54
2019-01-13T18:49:40.457Z,997.54
2019-01-13T18:50:40.424Z,997.46
2019-01-13T18:51:40.836Z,997.59
2019-01-13T18:52:40.423Z,997.54
2019-01-13T18:53:40.384Z,997.49
2019-01-13T18:54:40.425Z,997.43
2019-01-13T18:55:40.384Z,997.50
2019-01-13T18:56:40.386Z,997.38
2019-01-13T18:57:40.346Z,997.51
2019-01-13T18:58:40.381Z,997.45
2019-01-13T18:59:40.326Z,997.41
2019-01-13T19:00:40.335Z,997.49
2019-01-13T19:01:40.311Z,997.46
2019-01-13T19:02:40.313Z,997.42
2019-01-13T19:03:40.288Z,997.45
2019-01-13T19:04:40.278Z,997.49
2019-01-13T19:05:40.277Z,997.50
2019-01-13T19:06:40.277Z,997.52
2019-01-13T19:07:40.244Z,997.49
2019-01-13T19:08:40.253Z,997.40
2019-01-13T19:09:40.222Z,997.42
2019-01-13T19:10:40.227Z,997.38
2019-01-13T19:11:40.212Z,997.45
2019-01-13T19:12:40.178Z,997.42
2019-01-13T19:13:40.413Z,997.39
2019-01-13T19:14:40.164Z,997.50
2019-01-13T19:15:40.165Z,997.61
2019-01-13T19:16:40.162Z,997.48
2019-01-13T19:17:40.126Z,997.61
2019-01-13T19:18:40.236Z,997.63
2019-01-13T19:19:40.104Z,997.50
2019-01-13T19:20:40.109Z,997.67
2019-01-13T19:21:40.108Z,997.58
2019-01-13T19:22:40.092Z,997.66
2019-01-13T19:23:40.087Z,997.73
2019-01-13T19:24:40.160Z,997.74
2019-01-13T19:25:40.098Z,997.66
2019-01-13T19:26:40.031Z,997.64
2019-01-13T19:27:40.053Z,997.71
2019-01-13T19:28:40.033Z,997.80
2019-01-13T19:29:39.997Z,997.74
2019-01-13T19:30:39.996Z,997.81
2019-01-13T19:31:40.025Z,997.84
2019-01-13T19:32:39.977Z,997.91
2019-01-13T19:33:39.959Z,998.04
2019-01-13T19:34:39.958Z,997.95
2019-01-13T19:35:39.931Z,997.94
2019-01-13T19:36:39.963Z,997.99
2019-01-13T19:37:39.916Z,998.05
2019-01-13T19:38:39.925Z,998.15
2019-01-13T19:39:39.900Z,998.49
2019-01-13T19:40:39.893Z,998.73
2019-01-13T19:41:39.948Z,998.70
2019-01-13T19:42:39.869Z,998.79
2019-01-13T19:43:39.905Z,998.82
2019-01-13T19:44:39.840Z,998.80
2019-01-13T19:45:39.849Z,998.93
2019-01-13T19:46:39.816Z,998.69
2019-01-13T19:47:39.834Z,998.64
2019-01-13T19:48:39.827Z,998.57
2019-01-13T19:49:39.790Z,998.44
2019-01-13T19:50:39.790Z,998.38
2019-01-13T19:51:39.799Z,998.31
2019-01-13T19:52:39.788Z,998.30
2019-01-13T19:53:39.749Z,998.35
2019-01-13T19:54:39.728Z,998.33
2019-01-13T19:55:39.738Z,998.38
2019-01-13T19:56:39.760Z,998.37
2019-01-13T19:57:39.725Z,998.22
2019-01-13T19:58:39.805Z,998.27
2019-01-13T19:59:39.674Z,998.40
2019-01-13T20:00:39.665Z,998.33
2019-01-13T20:01:39.685Z,998.39
2019-01-13T20:02:39.663Z,998.36
2019-01-13T20:03:39.631Z,998.37
2019-01-13T20:04:39.645Z,998.35
2019-01-13T20:05:39.638Z,998.45
2019-01-13T20:06:39.598Z,998.40
2019-01-13T20:07:39.624Z,998.34
2019-01-13T20:08:39.602Z,998.28
2019-01-13T20:09:39.577Z,998.17
2019-01-13T20:10:39.587Z,998.20
2019-01-13T20:11:39.557Z,998.32
2019-01-13T20:12:39.578Z,998.42
2019-01-13T20:13:39.561Z,998.23
2019-01-13T20:14:39.640Z,998.36
2019-01-13T20:15:39.517Z,998.32
2019-01-13T20:16:39.493Z,998.31
2019-01-13T20:17:39.506Z,998.28
2019-01-13T20:18:39.549Z,998.35
2019-01-13T20:19:39.465Z,998.36
2019-01-13T20:20:39.461Z,998.35
2019-01-13T20:21:39.464Z,998.39
2019-01-13T20:22:39.436Z,998.43
2019-01-13T20:23:39.443Z,998.41
2019-01-13T20:24:39.407Z,998.46
2019-01-13T20:25:39.403Z,998.40
2019-01-13T20:26:39.396Z,998.45
2019-01-13T20:27:39.414Z,998.38
2019-01-13T20:28:39.398Z,998.45
2019-01-13T20:29:39.363Z,998.46
2019-01-13T20:30:39.351Z,998.47
2019-01-13T20:31:39.334Z,998.53
2019-01-13T20:32:39.332Z,998.52
2019-01-13T20:33:39.359Z,998.48
2019-01-13T20:34:39.304Z,998.55
2019-01-13T20:35:39.323Z,998.58
2019-01-13T20:36:39.284Z,998.50
2019-01-13T20:37:39.289Z,998.53
2019-01-13T20:38:39.310Z,998.54
2019-01-13T20:39:39.250Z,998.52
2019-01-13T20:40:39.255Z,998.58
2019-01-13T20:41:39.225Z,998.57
2019-01-13T20:42:39.226Z,998.63
2019-01-13T20:43:39.234Z,998.65
2019-01-13T20:44:39.197Z,998.63
2019-01-13T20:45:39.186Z,998.67
2019-01-13T20:46:39.178Z,998.74
2019-01-13T20:47:39.161Z,998.73
2019-01-13T20:48:39.173Z,998.66
2019-01-13T20:49:39.144Z,998.68
2019-01-13T20:50:39.152Z,998.69
2019-01-13T20:51:39.136Z,998.69
2019-01-13T20:52:39.124Z,998.69
2019-01-13T20:53:39.135Z,998.72
2019-01-13T20:54:39.097Z,998.70
2019-01-13T20:55:39.076Z,998.71
2019-01-13T20:56:39.083Z,998.78
2019-01-13T20:57:39.113Z,998.75
2019-01-13T20:58:39.097Z,998.78
2019-01-13T20:59:39.037Z,998.77
2019-01-13T21:00:39.040Z,998.78
2019-01-13T21:01:39.026Z,998.73
2019-01-13T21:02:39.053Z,998.77
2019-01-13T21:03:39.025Z,998.78
2019-01-13T21:04:38.984Z,998.81
2019-01-13T21:05:39.018Z,998.80
2019-01-13T21:06:38.962Z,998.81
2019-01-13T21:07:38.950Z,998.75
2019-01-13T21:08:38.991Z,998.83
2019-01-13T21:09:38.935Z,998.77
2019-01-13T21:10:39.219Z,998.78
2019-01-13T21:11:38.922Z,998.80
2019-01-13T21:12:38.926Z,998.75
2019-01-13T21:13:38.915Z,998.85
2019-01-13T21:14:38.875Z,998.85
2019-01-13T21:15:38.864Z,998.94
2019-01-13T21:16:38.854Z,998.93
2019-01-13T21:17:38.890Z,998.90
2019-01-13T21:18:38.841Z,998.86
2019-01-13T21:19:38.898Z,998.95
2019-01-13T21:20:38.810Z,998.92
2019-01-13T21:21:38.799Z,998.96
2019-01-13T21:22:38.839Z,998.96
2019-01-13T21:23:38.809Z,998.96
2019-01-13T21:24:38.811Z,999.01
2019-01-13T21:25:38.758Z,999.03
2019-01-13T21:26:38.753Z,999.00
2019-01-13T21:27:38.738Z,999.08
2019-01-13T21:28:38.750Z,999.04
2019-01-13T21:29:38.770Z,999.01
2019-01-13T21:30:38.754Z,998.98
2019-01-13T21:31:38.703Z,998.94
2019-01-13T21:32:38.709Z,998.97
2019-01-13T21:33:38.680Z,998.99
2019-01-13T21:34:38.688Z,998.98
2019-01-13T21:35:38.651Z,999.00
2019-01-13T21:36:38.651Z,999.00
2019-01-13T21:37:38.647Z,999.03
2019-01-13T21:38:38.674Z,999.05
2019-01-13T21:39:38.643Z,999.06
2019-01-13T21:40:38.616Z,999.02
2019-01-13T21:41:38.618Z,999.02
2019-01-13T21:42:38.580Z,999.06
2019-01-13T21:43:38.585Z,999.04
2019-01-13T21:44:38.694Z,999.14
2019-01-13T21:45:38.566Z,999.15
2019-01-13T21:46:38.613Z,999.10
2019-01-13T21:47:38.537Z,999.12
2019-01-13T21:48:38.532Z,999.13
2019-01-13T21:49:38.529Z,999.17
2019-01-13T21:50:38.506Z,999.24
2019-01-13T21:51:38.488Z,999.22
2019-01-13T21:52:38.469Z,999.26
2019-01-13T21:53:38.498Z,999.29
2019-01-13T21:54:38.478Z,999.33
2019-01-13T21:55:38.566Z,999.33
2019-01-13T21:56:38.427Z,999.37
2019-01-13T21:57:38.444Z,999.36
2019-01-13T21:58:38.402Z,999.30
2019-01-13T21:59:38.395Z,999.34
2019-01-13T22:00:38.504Z,999.34
2019-01-13T22:01:38.372Z,999.39
2019-01-13T22:02:38.369Z,999.37
2019-01-13T22:03:38.383Z,999.37
2019-01-13T22:04:38.339Z,999.36
2019-01-13T22:05:41.214Z,999.42
2019-01-13T22:06:38.326Z,999.36